createdAt,value
2018-11-28T00:03:06.632Z,9.20
2018-11-28T00:08:11.636Z,9.30
2018-11-28T00:13:16.614Z,9.40
2018-11-28T00:18:21.752Z,9.40
2018-11-28T00:23:26.712Z,9.50
2018-11-28T00:28:31.639Z,9.70
2018-11-28T00:33:36.476Z,9.70
2018-11-28T00:38:41.314Z,9.60
2018-11-28T00:43:46.222Z,9.50
2018-11-28T00:48:51.436Z,9.40
2018-11-28T00:53:56.480Z,9.30
2018-11-28T00:59:01.396Z,9.40
2018-11-28T01:04:06.380Z,9.60
2018-11-28T01:09:11.305Z,9.90
2018-11-28T01:14:16.227Z,9.90
2018-11-28T01:19:21.195Z,9.80
2018-11-28T01:24:26.083Z,9.80
2018-11-28T01:29:31.065Z,9.70
2018-11-28T01:34:36.123Z,9.70
2018-11-28T01:39:40.974Z,9.70
2018-11-28T01:44:48.664Z,9.60
2018-11-28T01:49:53.771Z,9.60
2018-11-28T01:54:58.672Z,9.60
2018-11-28T02:00:03.843Z,9.70
2018-11-28T02:05:10.271Z,9.70
2018-11-28T02:10:16.198Z,9.60
2018-11-28T02:15:26.539Z,9.50
2018-11-28T02:20:41.581Z,9.50
2018-11-28T02:25:48.768Z,9.60
2018-11-28T02:30:54.865Z,9.70
2018-11-28T02:35:59.771Z,9.60
2018-11-28T02:41:05.622Z,9.60
2018-11-28T02:46:21.473Z,9.70
2018-11-28T02:51:26.716Z,9.50
2018-11-28T02:56:31.966Z,9.70
2018-11-28T03:01:37.490Z,9.90
2018-11-28T03:06:42.851Z,9.80
2018-11-28T03:11:47.773Z,9.90
2018-11-28T03:16:52.768Z,9.80
2018-11-28T03:21:57.740Z,9.60
2018-11-28T03:27:02.725Z,9.50
2018-11-28T03:32:07.587Z,9.50
2018-11-28T03:37:12.564Z,9.60
2018-11-28T03:42:17.575Z,9.60
2018-11-28T03:47:22.511Z,9.60
2018-11-28T03:52:27.560Z,9.60
2018-11-28T03:57:32.493Z,9.60
2018-11-28T04:02:37.641Z,9.60
2018-11-28T04:07:42.552Z,9.60
2018-11-28T04:12:47.785Z,9.60
2018-11-28T04:17:52.823Z,9.70
2018-11-28T04:22:57.830Z,9.70
2018-11-28T04:28:02.969Z,9.70
2018-11-28T04:33:07.903Z,9.50
2018-11-28T04:38:12.891Z,9.50
2018-11-28T04:43:18.103Z,9.60
2018-11-28T04:48:23.044Z,9.50
2018-11-28T04:53:28.264Z,9.60
2018-11-28T04:58:33.085Z,9.50
2018-11-28T05:03:37.940Z,9.50
2018-11-28T05:08:42.814Z,9.50
2018-11-28T05:13:48.156Z,9.50
2018-11-28T05:18:53.267Z,9.20
2018-11-28T05:23:58.186Z,9.10
2018-11-28T05:29:03.124Z,9.20
2018-11-28T05:34:08.084Z,9.30
2018-11-28T05:39:13.145Z,9.40
2018-11-28T05:44:18.267Z,9.30
2018-11-28T05:49:23.292Z,9.10
2018-11-28T05:54:29.387Z,9.10
2018-11-28T05:59:36.089Z,9.20
2018-11-28T06:04:41.075Z,9.30
2018-11-28T06:09:45.957Z,9.40
2018-11-28T06:14:50.845Z,9.20
2018-11-28T06:19:55.803Z,9.20
2018-11-28T06:25:00.853Z,9.10
2018-11-28T06:30:07.816Z,9.10
2018-11-28T06:35:13.354Z,9.20
2018-11-28T06:40:24.025Z,9.20
2018-11-28T06:45:24.103Z,9.30
2018-11-28T06:50:29.104Z,9.30
2018-11-28T06:55:34.005Z,9.40
2018-11-28T07:00:39.098Z,9.40
2018-11-28T07:05:44.010Z,9.30
2018-11-28T07:10:50.617Z,9.20
2018-11-28T07:15:56.332Z,9.30
2018-11-28T07:21:01.332Z,9.40
2018-11-28T07:26:06.468Z,9.40
2018-11-28T07:31:11.408Z,9.50
2018-11-28T07:36:16.973Z,9.50
2018-11-28T07:41:22.177Z,9.70
2018-11-28T07:46:27.422Z,9.70
2018-11-28T07:51:33.314Z,9.90
2018-11-28T07:56:38.583Z,9.90
2018-11-28T08:01:44.273Z,10.10
2018-11-28T08:06:49.458Z,10.20
2018-11-28T08:11:54.461Z,10.20
2018-11-28T08:16:59.482Z,10.20
2018-11-28T08:22:04.539Z,10.40
2018-11-28T08:27:09.483Z,10.50
2018-11-28T08:32:14.581Z,10.80
2018-11-28T08:37:19.478Z,10.90
2018-11-28T08:42:24.383Z,10.90
2018-11-28T08:47:30.207Z,11.00
2018-11-28T08:52:35.813Z,10.90
2018-11-28T08:57:40.943Z,11.00
2018-11-28T09:02:46.836Z,11.10
2018-11-28T09:07:51.769Z,11.30
2018-11-28T09:12:56.952Z,11.70
2018-11-28T09:18:01.994Z,12.30
2018-11-28T09:23:07.659Z,12.50
2018-11-28T09:28:12.641Z,12.70
2018-11-28T09:33:17.672Z,13.00
2018-11-28T09:38:22.697Z,13.10
2018-11-28T09:43:29.145Z,12.80
2018-11-28T09:48:33.016Z,12.40
2018-11-28T09:53:38.075Z,12.70
2018-11-28T09:58:43.014Z,13.10
2018-11-28T10:03:47.921Z,13.50
2018-11-28T10:08:53.074Z,13.90
2018-11-28T10:13:58.179Z,14.20
2018-11-28T10:19:03.150Z,14.60
2018-11-28T10:24:08.344Z,14.80
2018-11-28T10:29:13.291Z,15.00
2018-11-28T10:34:18.326Z,15.40
2018-11-28T10:39:23.207Z,15.60
2018-11-28T10:44:28.625Z,15.80
2018-11-28T10:49:33.686Z,15.80
2018-11-28T10:54:38.838Z,15.70
2018-11-28T10:59:44.222Z,16.10
2018-11-28T11:04:53.994Z,16.10
2018-11-28T11:10:05.094Z,16.20
2018-11-28T11:15:10.039Z,16.50
2018-11-28T11:20:14.990Z,16.70
2018-11-28T11:25:19.939Z,17.10
2018-11-28T11:30:25.924Z,17.20
2018-11-28T11:35:30.933Z,17.60
2018-11-28T11:40:36.024Z,17.50
2018-11-28T11:45:41.093Z,17.10
2018-11-28T11:50:46.238Z,17.00
2018-11-28T11:55:51.303Z,17.30
2018-11-28T12:00:56.375Z,17.50
2018-11-28T12:06:01.320Z,17.30
2018-11-28T12:11:06.375Z,17.10
2018-11-28T12:16:11.394Z,17.30
2018-11-28T12:21:16.372Z,17.30
2018-11-28T12:26:21.370Z,17.60
2018-11-28T12:31:26.396Z,17.90
2018-11-28T12:36:31.357Z,18.20
2018-11-28T12:41:36.235Z,18.80
2018-11-28T12:46:41.310Z,18.60
2018-11-28T12:51:46.213Z,18.20
2018-11-28T12:56:51.291Z,18.40
2018-11-28T13:01:56.318Z,18.50
2018-11-28T13:07:01.802Z,19.00
2018-11-28T13:12:06.827Z,18.80
2018-11-28T13:17:11.924Z,18.60
2018-11-28T13:22:16.872Z,18.70
2018-11-28T13:27:21.870Z,18.80
2018-11-28T13:32:27.023Z,18.60
2018-11-28T13:37:31.994Z,18.10
2018-11-28T13:42:37.098Z,17.80
2018-11-28T13:47:42.629Z,17.60
2018-11-28T13:52:47.695Z,17.60
2018-11-28T13:57:52.619Z,17.60
2018-11-28T14:02:57.636Z,17.90
2018-11-28T14:08:02.555Z,18.20
2018-11-28T14:13:07.910Z,18.30
2018-11-28T14:18:15.301Z,18.90
2018-11-28T14:23:21.253Z,19.50
2018-11-28T14:28:27.806Z,19.80
2018-11-28T14:33:32.879Z,19.40
2018-11-28T14:38:37.852Z,19.50
2018-11-28T14:43:42.877Z,20.10
2018-11-28T14:48:48.267Z,20.00
2018-11-28T14:53:53.466Z,19.20
2018-11-28T14:58:58.490Z,18.80
2018-11-28T15:04:03.477Z,18.40
2018-11-28T15:09:15.528Z,18.00
2018-11-28T15:14:20.489Z,17.60
2018-11-28T15:19:25.599Z,17.20
2018-11-28T15:24:30.500Z,17.30
2018-11-28T15:29:35.565Z,17.10
2018-11-28T15:34:40.596Z,16.80
2018-11-28T15:39:45.547Z,16.40
2018-11-28T15:44:50.474Z,16.00
2018-11-28T15:49:55.585Z,15.90
2018-11-28T15:55:00.610Z,15.80
2018-11-28T16:00:09.499Z,15.50
2018-11-28T16:05:14.619Z,15.30
2018-11-28T16:10:24.894Z,15.10
2018-11-28T16:15:31.914Z,14.80
2018-11-28T16:20:36.812Z,14.80
2018-11-28T16:25:41.739Z,14.80
2018-11-28T16:30:46.916Z,14.80
2018-11-28T16:35:52.018Z,14.60
2018-11-28T16:40:57.169Z,14.40
2018-11-28T16:46:02.244Z,14.20
2018-11-28T16:51:07.738Z,14.10
2018-11-28T16:56:12.674Z,13.90
2018-11-28T17:01:17.604Z,13.80
2018-11-28T17:06:22.640Z,13.80
2018-11-28T17:11:27.740Z,13.80
2018-11-28T17:16:35.676Z,13.60
2018-11-28T17:21:40.644Z,13.30
2018-11-28T17:26:45.643Z,13.20
2018-11-28T17:31:50.983Z,13.10
2018-11-28T17:36:56.351Z,13.10
2018-11-28T17:42:01.277Z,13.10
2018-11-28T17:47:06.204Z,13.10
2018-11-28T17:52:11.197Z,13.20
2018-11-28T17:57:16.129Z,13.40
2018-11-28T18:02:21.244Z,13.10
2018-11-28T18:07:26.307Z,13.10
2018-11-28T18:12:31.214Z,13.30
2018-11-28T18:17:36.140Z,13.20
2018-11-28T18:22:41.117Z,13.20
2018-11-28T18:27:46.951Z,13.10
2018-11-28T18:32:52.525Z,13.20
2018-11-28T18:37:57.560Z,13.40
2018-11-28T18:43:02.523Z,13.10
2018-11-28T18:48:07.586Z,13.10
2018-11-28T18:53:12.616Z,13.10
2018-11-28T18:58:17.559Z,13.10
2018-11-28T19:03:22.660Z,13.00
2018-11-28T19:08:27.621Z,13.10
2018-11-28T19:13:32.524Z,13.10
2018-11-28T19:18:37.522Z,13.20
2018-11-28T19:23:42.502Z,13.20
2018-11-28T19:28:47.437Z,13.20
2018-11-28T19:33:52.800Z,13.10
2018-11-28T19:38:57.767Z,13.10
2018-11-28T19:44:02.800Z,12.90
2018-11-28T19:49:07.826Z,12.90
2018-11-28T19:54:12.736Z,13.00
2018-11-28T19:59:18.168Z,12.90
2018-11-28T20:04:23.442Z,12.80
2018-11-28T20:09:28.351Z,12.80
2018-11-28T20:14:33.419Z,12.60
2018-11-28T20:19:38.364Z,12.60
2018-11-28T20:24:43.259Z,12.60
2018-11-28T20:29:48.255Z,12.60
2018-11-28T20:34:53.959Z,12.50
2018-11-28T20:39:59.316Z,12.60
2018-11-28T20:45:06.339Z,12.70
2018-11-28T20:50:13.478Z,12.70
2018-11-28T21:01:18.249Z,12.40
2018-11-28T21:06:23.389Z,12.40
2018-11-28T21:11:28.725Z,12.30
2018-11-28T21:16:33.755Z,12.30
2018-11-28T21:21:39.651Z,12.20
2018-11-28T21:26:44.573Z,12.10
2018-11-28T21:31:49.543Z,11.90
2018-11-28T21:36:54.479Z,11.90
2018-11-28T21:41:59.554Z,11.90
2018-11-28T21:47:04.589Z,11.80
2018-11-28T21:52:09.657Z,11.70
2018-11-28T21:57:14.593Z,11.40
2018-11-28T22:02:19.734Z,11.30
2018-11-28T22:07:24.699Z,11.10
2018-11-28T22:12:29.597Z,11.10
2018-11-28T22:17:34.539Z,11.10
2018-11-28T22:22:39.610Z,10.90
2018-11-28T22:27:44.801Z,10.80
2018-11-28T22:32:49.895Z,10.70
2018-11-28T22:37:54.861Z,10.50
2018-11-28T22:42:59.842Z,10.40
2018-11-28T22:48:05.022Z,10.60
2018-11-28T22:53:09.918Z,10.60
2018-11-28T22:58:14.903Z,10.50
2018-11-28T23:03:19.986Z,10.40
2018-11-28T23:08:24.897Z,10.30
2018-11-28T23:13:29.866Z,10.40
2018-11-28T23:18:34.778Z,10.00
2018-11-28T23:23:39.834Z,9.80
2018-11-28T23:28:44.768Z,9.90
2018-11-28T23:33:49.678Z,10.20
2018-11-28T23:38:54.896Z,10.00
2018-11-28T23:44:07.161Z,9.90
2018-11-28T23:49:13.380Z,10.10
2018-11-28T23:54:18.247Z,10.20
2018-11-28T23:59:33.216Z,10.30
